createdAt,value
2022-08-03T00:02:20.318Z,99248.34
2022-08-03T00:04:48.296Z,99250.06
2022-08-03T00:07:16.338Z,99250.31
2022-08-03T00:09:44.208Z,99253.25
2022-08-03T00:12:11.682Z,99253.31
2022-08-03T00:14:39.194Z,99248.41
2022-08-03T00:17:07.505Z,99255.47
2022-08-03T00:19:34.841Z,99255.69
2022-08-03T00:22:02.215Z,99253.13
2022-08-03T00:24:31.459Z,99247.97
2022-08-03T00:26:58.588Z,99259.47
2022-08-03T00:29:26.011Z,99257.66
2022-08-03T00:31:59.361Z,99232.63
2022-08-03T00:34:36.639Z,99247.19
2022-08-03T00:37:18.879Z,99251.63
2022-08-03T00:39:48.150Z,99241.00
2022-08-03T00:42:16.377Z,99254.16
2022-08-03T00:44:44.937Z,99240.06
2022-08-03T00:47:13.372Z,99250.63
2022-08-03T00:49:42.332Z,99246.41
2022-08-03T00:52:15.154Z,99245.56
2022-08-03T00:54:42.217Z,99248.25
2022-08-03T00:57:09.710Z,99245.66
2022-08-03T00:59:39.779Z,99243.88
2022-08-03T01:02:07.112Z,99238.81
2022-08-03T01:04:34.383Z,99245.16
2022-08-03T01:07:15.737Z,99248.59
2022-08-03T01:10:01.965Z,99242.72
2022-08-03T01:12:52.368Z,99246.41
2022-08-03T01:15:33.717Z,99241.44
2022-08-03T01:18:10.472Z,99246.00
2022-08-03T01:20:43.820Z,99246.13
2022-08-03T01:23:32.298Z,99224.88
2022-08-03T01:26:14.583Z,99237.53
2022-08-03T01:28:51.195Z,99235.94
2022-08-03T01:31:26.518Z,99235.88
2022-08-03T01:33:59.586Z,99239.31
2022-08-03T01:36:32.512Z,99232.53
2022-08-03T01:39:09.555Z,99242.91
2022-08-03T01:41:44.671Z,99252.69
2022-08-03T01:44:27.290Z,99245.81
2022-08-03T01:47:01.393Z,99240.31
2022-08-03T01:49:32.429Z,99239.22
2022-08-03T01:52:04.985Z,99247.06
2022-08-03T01:54:41.056Z,99247.97
2022-08-03T01:57:09.823Z,99241.56
2022-08-03T01:59:38.981Z,99239.09
2022-08-03T02:02:28.566Z,99242.50
2022-08-03T02:04:57.787Z,99249.22
2022-08-03T02:07:27.048Z,99252.66
2022-08-03T02:09:55.805Z,99259.13
2022-08-03T02:12:27.012Z,99262.28
2022-08-03T02:15:16.426Z,99257.41
2022-08-03T02:17:46.006Z,99250.72
2022-08-03T02:20:13.845Z,99256.19
2022-08-03T02:22:42.677Z,99258.94
2022-08-03T02:25:12.077Z,99259.72
2022-08-03T02:27:44.203Z,99261.59
2022-08-03T02:30:13.682Z,99252.06
2022-08-03T02:32:44.323Z,99257.38
2022-08-03T02:35:13.586Z,99258.72
2022-08-03T02:37:49.817Z,99270.59
2022-08-03T02:40:19.285Z,99260.22
2022-08-03T02:42:48.849Z,99256.56
2022-08-03T02:45:18.883Z,99268.53
2022-08-03T02:47:54.250Z,99265.41
2022-08-03T02:50:24.347Z,99267.88
2022-08-03T02:52:54.396Z,99269.69
2022-08-03T02:55:24.194Z,99274.22
2022-08-03T02:57:53.012Z,99262.69
2022-08-03T03:00:27.897Z,99280.03
2022-08-03T03:03:01.012Z,99268.53
2022-08-03T03:05:56.115Z,99270.34
2022-08-03T03:08:28.118Z,99254.94
2022-08-03T03:11:04.638Z,99259.22
2022-08-03T03:13:35.361Z,99256.13
2022-08-03T03:16:09.017Z,99269.47
2022-08-03T03:18:42.382Z,99264.75
2022-08-03T03:21:12.221Z,99261.38
2022-08-03T03:23:43.802Z,99262.53
2022-08-03T03:26:13.772Z,99269.66
2022-08-03T03:28:43.738Z,99271.56
2022-08-03T03:31:11.954Z,99273.41
2022-08-03T03:33:45.155Z,99266.78
2022-08-03T03:36:15.249Z,99273.81
2022-08-03T03:38:46.064Z,99278.13
2022-08-03T03:41:15.851Z,99274.38
2022-08-03T03:49:11.859Z,99281.00
2022-08-03T03:51:47.001Z,99281.69
2022-08-03T03:59:49.251Z,99278.88
2022-08-03T04:05:18.594Z,99282.03
2022-08-03T04:08:37.568Z,99286.16
2022-08-03T04:11:16.904Z,99282.25
2022-08-03T04:14:01.749Z,99289.53
2022-08-03T04:16:33.911Z,99288.34
2022-08-03T04:19:08.019Z,99280.16
2022-08-03T04:21:38.166Z,99287.66
2022-08-03T04:24:09.196Z,99283.72
2022-08-03T04:26:39.750Z,99289.53
2022-08-03T04:29:09.470Z,99300.25
2022-08-03T04:31:38.601Z,99295.00
2022-08-03T04:34:06.129Z,99292.00
2022-08-03T04:36:38.587Z,99295.94
2022-08-03T04:39:19.984Z,99301.56
2022-08-03T04:42:07.244Z,99282.88
2022-08-03T04:44:41.892Z,99294.06
2022-08-03T04:47:09.273Z,99294.91
2022-08-03T04:49:40.470Z,99280.63
2022-08-03T04:52:08.861Z,99293.34
2022-08-03T04:54:48.820Z,99287.41
2022-08-03T04:57:23.078Z,99284.09
2022-08-03T05:00:02.479Z,99286.13
2022-08-03T05:02:33.721Z,99290.16
2022-08-03T05:05:01.063Z,99280.25
2022-08-03T05:07:34.103Z,99286.81
2022-08-03T05:10:15.113Z,99285.09
2022-08-03T05:12:48.451Z,99283.84
2022-08-03T05:15:16.143Z,99283.25
2022-08-03T05:17:43.643Z,99284.25
2022-08-03T05:20:35.368Z,99297.94
2022-08-03T05:23:04.075Z,99294.56
2022-08-03T05:25:31.126Z,99284.88
2022-08-03T05:27:58.232Z,99305.31
2022-08-03T05:30:30.789Z,99298.38
2022-08-03T05:33:06.689Z,99299.50
2022-08-03T05:36:02.519Z,99302.75
2022-08-03T05:38:28.913Z,99295.63
2022-08-03T05:41:22.066Z,99291.44
2022-08-03T05:43:49.000Z,99294.75
2022-08-03T05:46:16.128Z,99297.69
2022-08-03T05:48:43.631Z,99298.16
2022-08-03T05:51:13.941Z,99299.53
2022-08-03T05:53:43.197Z,99299.47
2022-08-03T05:56:14.530Z,99291.69
2022-08-03T05:58:48.745Z,99293.38
2022-08-03T06:01:17.490Z,99294.69
2022-08-03T06:03:46.065Z,99292.22
2022-08-03T06:06:14.039Z,99274.09
2022-08-03T06:08:42.826Z,99281.59
2022-08-03T06:11:10.050Z,99292.88
2022-08-03T06:13:37.819Z,99286.78
2022-08-03T06:16:05.591Z,99285.06
2022-08-03T06:18:32.766Z,99280.31
2022-08-03T06:21:14.123Z,99291.19
2022-08-03T06:23:53.226Z,99290.16
2022-08-03T06:26:25.004Z,99289.19
2022-08-03T06:28:54.198Z,99287.44
2022-08-03T06:31:32.848Z,99288.31
2022-08-03T06:34:33.596Z,99294.97
2022-08-03T06:36:52.475Z,99280.06
2022-08-03T06:39:20.641Z,99289.22
2022-08-03T06:41:51.197Z,99303.84
2022-08-03T06:44:18.270Z,99286.03
2022-08-03T06:46:45.395Z,99296.28
2022-08-03T06:49:12.597Z,99303.38
2022-08-03T06:52:05.890Z,99295.75
2022-08-03T06:54:32.920Z,99300.75
2022-08-03T06:57:01.130Z,99301.91
2022-08-03T07:00:07.695Z,99280.28
2022-08-03T07:02:19.337Z,99300.34
2022-08-03T07:04:50.693Z,99307.31
2022-08-03T07:07:19.612Z,99316.69
2022-08-03T07:09:58.525Z,99299.75
2022-08-03T07:12:31.082Z,99305.50
2022-08-03T07:15:01.744Z,99294.84
2022-08-03T07:17:35.229Z,99320.50
2022-08-03T07:20:16.437Z,99308.75
2022-08-03T07:22:45.164Z,99315.03
2022-08-03T07:25:12.425Z,99317.84
2022-08-03T07:27:47.774Z,99311.50
2022-08-03T07:30:19.082Z,99321.31
2022-08-03T07:32:50.350Z,99325.03
2022-08-03T07:35:24.805Z,99327.75
2022-08-03T07:37:54.803Z,99328.22
2022-08-03T07:40:23.679Z,99330.19
2022-08-03T07:42:57.066Z,99336.00
2022-08-03T07:45:26.867Z,99311.19
2022-08-03T07:47:55.694Z,99324.31
2022-08-03T07:50:24.782Z,99332.06
2022-08-03T07:52:56.263Z,99324.13
2022-08-03T07:55:25.939Z,99323.94
2022-08-03T07:58:12.626Z,99341.41
2022-08-03T08:00:40.049Z,99331.59
2022-08-03T08:03:09.410Z,99351.31
2022-08-03T08:05:37.828Z,99348.09
2022-08-03T08:08:05.479Z,99344.53
2022-08-03T08:10:33.332Z,99353.84
2022-08-03T08:13:01.875Z,99342.63
2022-08-03T08:15:30.583Z,99348.16
2022-08-03T08:18:03.779Z,99339.78
2022-08-03T08:20:37.941Z,99329.53
2022-08-03T08:23:41.660Z,99356.88
2022-08-03T08:26:07.204Z,99351.63
2022-08-03T08:28:36.252Z,99326.97
2022-08-03T08:31:03.619Z,99348.75
2022-08-03T08:34:03.693Z,99338.84
2022-08-03T08:36:28.986Z,99338.53
2022-08-03T08:38:58.276Z,99333.22
2022-08-03T08:41:32.356Z,99324.03
2022-08-03T08:44:00.353Z,99347.97
2022-08-03T08:46:38.856Z,99359.31
2022-08-03T08:49:10.957Z,99332.31
2022-08-03T08:51:59.047Z,99359.13
2022-08-03T08:54:36.325Z,99341.31
2022-08-03T08:57:21.100Z,99338.81
2022-08-03T09:00:00.197Z,99345.63
2022-08-03T09:02:30.667Z,99361.47
2022-08-03T09:05:05.305Z,99349.69
2022-08-03T09:07:35.216Z,99348.53
2022-08-03T09:10:12.755Z,99334.19
2022-08-03T09:12:46.747Z,99331.38
2022-08-03T09:15:24.356Z,99327.88
2022-08-03T09:18:02.295Z,99334.19
2022-08-03T09:20:32.387Z,99347.63
2022-08-03T09:23:51.802Z,99347.06
2022-08-03T09:26:00.382Z,99345.75
2022-08-03T09:29:00.435Z,99357.78
2022-08-03T09:31:43.117Z,99342.22
2022-08-03T09:34:13.164Z,99376.22
2022-08-03T09:36:52.947Z,99353.75
2022-08-03T09:42:08.373Z,99340.59
2022-08-03T09:44:42.467Z,99344.31
2022-08-03T09:47:13.647Z,99338.28
2022-08-03T09:49:58.240Z,99335.09
2022-08-03T09:52:39.175Z,99339.50
2022-08-03T09:56:05.213Z,99340.19
2022-08-03T09:58:14.717Z,99334.72
2022-08-03T10:01:04.078Z,99340.19
2022-08-03T10:04:03.064Z,99339.22
2022-08-03T10:06:32.596Z,99353.91
2022-08-03T10:11:55.107Z,99349.50
2022-08-03T10:14:23.756Z,99342.84
2022-08-03T10:16:51.804Z,99352.47
2022-08-03T10:19:20.575Z,99342.34
2022-08-03T10:21:55.787Z,99356.91
2022-08-03T10:24:30.990Z,99354.84
2022-08-03T10:27:12.698Z,99354.94
2022-08-03T10:29:51.818Z,99343.84
2022-08-03T10:32:37.476Z,99334.84
2022-08-03T10:35:23.640Z,99344.78
2022-08-03T10:38:27.316Z,99330.56
2022-08-03T10:40:59.124Z,99346.81
2022-08-03T10:43:33.902Z,99338.16
2022-08-03T10:46:04.252Z,99354.81
2022-08-03T10:48:34.125Z,99353.31
2022-08-03T10:51:07.025Z,99363.84
2022-08-03T10:53:38.079Z,99357.66
2022-08-03T10:56:44.357Z,99352.50
2022-08-03T10:59:12.219Z,99353.88
2022-08-03T11:01:59.945Z,99356.72
2022-08-03T11:04:30.322Z,99363.25
2022-08-03T11:07:22.781Z,99370.22
2022-08-03T11:09:52.692Z,99357.97
2022-08-03T11:12:21.690Z,99373.78
2022-08-03T11:15:00.375Z,99351.50
2022-08-03T11:17:27.658Z,99354.34
2022-08-03T11:19:57.736Z,99354.03
2022-08-03T11:22:26.100Z,99346.06
2022-08-03T11:24:57.378Z,99358.28
2022-08-03T11:27:32.254Z,99362.00
2022-08-03T11:30:11.774Z,99359.88
2022-08-03T11:32:40.249Z,99360.53
2022-08-03T11:35:17.826Z,99351.44
2022-08-03T11:38:03.361Z,99361.91
2022-08-03T11:40:41.697Z,99360.69
2022-08-03T11:43:30.426Z,99348.84
2022-08-03T11:46:06.625Z,99356.56
2022-08-03T11:48:51.032Z,99356.59
2022-08-03T11:51:24.332Z,99357.25
2022-08-03T11:54:03.948Z,99364.34
2022-08-03T11:56:51.519Z,99358.97
2022-08-03T11:59:22.165Z,99361.03
2022-08-03T12:01:50.062Z,99351.91
2022-08-03T12:04:17.291Z,99349.72
2022-08-03T12:07:01.513Z,99354.50
2022-08-03T12:09:29.707Z,99336.66
2022-08-03T12:12:00.581Z,99357.88
2022-08-03T12:14:48.791Z,99344.59
2022-08-03T12:17:19.547Z,99351.81
2022-08-03T12:19:46.810Z,99339.06
2022-08-03T12:22:14.127Z,99347.88
2022-08-03T12:24:46.909Z,99347.03
2022-08-03T12:27:24.221Z,99345.31
2022-08-03T12:29:58.507Z,99340.41
2022-08-03T12:32:28.451Z,99348.59
2022-08-03T12:35:01.916Z,99343.34
2022-08-03T12:37:31.379Z,99332.34
2022-08-03T12:40:09.763Z,99337.41
2022-08-03T12:42:40.066Z,99347.72
2022-08-03T12:45:27.897Z,99346.94
2022-08-03T12:48:02.293Z,99350.63
2022-08-03T12:50:31.378Z,99359.78
2022-08-03T12:53:01.741Z,99353.47
2022-08-03T12:55:57.184Z,99348.84
2022-08-03T12:58:34.320Z,99348.19
2022-08-03T13:01:10.041Z,99353.47
2022-08-03T13:03:50.286Z,99356.63
2022-08-03T13:06:26.043Z,99351.41
2022-08-03T13:09:05.611Z,99347.81
2022-08-03T13:11:55.868Z,99352.56
2022-08-03T13:14:20.754Z,99343.03
2022-08-03T13:16:49.331Z,99343.34
2022-08-03T13:19:16.678Z,99356.03
2022-08-03T13:22:01.851Z,99356.03
2022-08-03T13:24:33.075Z,99348.59
2022-08-03T13:27:00.748Z,99354.41
2022-08-03T13:29:47.919Z,99344.09
2022-08-03T13:32:15.018Z,99344.16
2022-08-03T13:34:42.183Z,99351.53
2022-08-03T13:37:10.271Z,99346.88
2022-08-03T13:39:57.205Z,99349.31
2022-08-03T13:42:25.289Z,99339.31
2022-08-03T13:44:52.490Z,99342.41
2022-08-03T13:47:20.459Z,99344.63
2022-08-03T13:49:59.492Z,99353.47
2022-08-03T13:52:28.382Z,99339.69
2022-08-03T13:54:55.472Z,99334.28
2022-08-03T13:58:02.871Z,99339.38
2022-08-03T14:00:10.500Z,99342.09
2022-08-03T14:02:38.595Z,99333.25
2022-08-03T14:05:06.151Z,99332.94
2022-08-03T14:07:33.329Z,99345.38
2022-08-03T14:10:02.051Z,99338.09
2022-08-03T14:12:30.636Z,99338.94
2022-08-03T14:14:59.742Z,99342.88
2022-08-03T14:17:42.039Z,99340.16
2022-08-03T14:20:36.609Z,99343.84
2022-08-03T14:23:03.903Z,99336.34
2022-08-03T14:25:43.109Z,99334.50
2022-08-03T14:28:19.307Z,99341.47
2022-08-03T14:30:46.398Z,99342.91
2022-08-03T14:33:13.685Z,99334.44
2022-08-03T14:35:41.004Z,99349.78
2022-08-03T14:38:08.258Z,99341.25
2022-08-03T14:40:35.330Z,99347.63
2022-08-03T14:43:02.728Z,99346.56
2022-08-03T14:45:29.891Z,99353.72
2022-08-03T14:50:28.571Z,99340.03
2022-08-03T14:50:50.185Z,99340.19
2022-08-03T14:53:18.364Z,99347.41
2022-08-03T14:55:50.846Z,99344.44
2022-08-03T14:58:23.370Z,99344.44
2022-08-03T15:00:52.146Z,99348.16
2022-08-03T15:03:23.826Z,99354.66
2022-08-03T15:05:56.344Z,99357.38
2022-08-03T15:08:23.988Z,99360.84
2022-08-03T15:10:51.302Z,99360.00
2022-08-03T15:13:19.693Z,99360.59
2022-08-03T15:15:48.043Z,99355.47
2022-08-03T15:18:15.421Z,99351.56
2022-08-03T15:20:45.384Z,99348.56
2022-08-03T15:23:14.464Z,99348.00
2022-08-03T15:26:32.242Z,99355.28
2022-08-03T15:28:30.324Z,99344.78
2022-08-03T15:30:57.404Z,99343.91
2022-08-03T15:33:24.598Z,99344.91
2022-08-03T15:35:52.145Z,99348.47
2022-08-03T15:38:19.939Z,99344.09
2022-08-03T15:40:46.987Z,99346.19
2022-08-03T15:43:14.217Z,99348.88
2022-08-03T15:45:43.050Z,99360.41
2022-08-03T15:48:10.052Z,99359.84
2022-08-03T15:50:37.185Z,99350.88
2022-08-03T15:53:04.928Z,99360.53
2022-08-03T15:55:32.281Z,99363.81
2022-08-03T15:59:09.157Z,99355.53
2022-08-03T16:00:46.944Z,99350.97
2022-08-03T16:03:14.073Z,99350.25
2022-08-03T16:05:44.717Z,99353.06
2022-08-03T16:08:13.864Z,99354.75
2022-08-03T16:10:43.262Z,99354.03
2022-08-03T16:13:10.377Z,99348.81
2022-08-03T16:15:39.042Z,99351.34
2022-08-03T16:18:07.505Z,99356.84
2022-08-03T16:20:35.308Z,99351.53
2022-08-03T16:23:11.072Z,99352.59
2022-08-03T16:25:40.804Z,99352.53
2022-08-03T16:28:13.404Z,99355.56
2022-08-03T16:30:43.927Z,99356.59
2022-08-03T16:33:16.722Z,99362.63
2022-08-03T16:35:46.605Z,99357.41
2022-08-03T16:38:18.613Z,99356.34
2022-08-03T16:40:51.814Z,99345.38
2022-08-03T16:43:22.410Z,99355.81
2022-08-03T16:45:49.916Z,99356.53
2022-08-03T16:48:18.814Z,99351.94
2022-08-03T16:50:46.420Z,99363.06
2022-08-03T16:53:16.788Z,99357.59
2022-08-03T16:55:51.867Z,99371.66
2022-08-03T16:58:41.582Z,99365.22
2022-08-03T17:01:23.581Z,99370.47
2022-08-03T17:04:03.309Z,99368.03
2022-08-03T17:06:44.676Z,99381.06
2022-08-03T17:09:15.587Z,99383.97
2022-08-03T17:11:48.796Z,99385.56
2022-08-03T17:14:21.902Z,99385.69
2022-08-03T17:16:54.256Z,99385.53
2022-08-03T17:19:24.526Z,99386.13
2022-08-03T17:22:10.616Z,99388.81
2022-08-03T17:24:45.991Z,99393.16
2022-08-03T17:28:49.606Z,99394.56
2022-08-03T17:30:11.889Z,99400.19
2022-08-03T17:32:52.482Z,99404.78
2022-08-03T17:35:36.922Z,99405.88
2022-08-03T17:38:12.014Z,99407.38
2022-08-03T17:40:47.935Z,99397.63
2022-08-03T17:44:14.474Z,99391.50
2022-08-03T17:46:11.142Z,99399.84
2022-08-03T17:48:41.347Z,99408.09
2022-08-03T17:51:31.868Z,99416.94
2022-08-03T17:54:18.011Z,99413.72
2022-08-03T17:56:48.498Z,99415.66
2022-08-03T17:59:52.758Z,99416.50
2022-08-03T18:03:13.089Z,99417.59
2022-08-03T18:06:11.342Z,99417.06
2022-08-03T18:08:34.189Z,99408.53
2022-08-03T18:11:14.249Z,99424.41
2022-08-03T18:13:53.515Z,99410.72
2022-08-03T18:16:33.517Z,99428.06
2022-08-03T18:19:09.378Z,99440.50
2022-08-03T18:22:03.740Z,99450.38
2022-08-03T18:24:30.797Z,99437.63
2022-08-03T18:26:59.789Z,99449.72
2022-08-03T18:29:31.203Z,99449.25
2022-08-03T18:32:03.201Z,99430.69
2022-08-03T18:34:34.601Z,99448.59
2022-08-03T18:37:07.507Z,99453.22
2022-08-03T18:39:57.896Z,99448.09
2022-08-03T18:42:26.936Z,99462.75
2022-08-03T18:44:56.373Z,99459.22
2022-08-03T18:47:57.936Z,99463.38
2022-08-03T18:50:34.855Z,99459.22
2022-08-03T18:53:21.778Z,99469.63
2022-08-03T18:56:15.837Z,99466.69
2022-08-03T18:59:02.544Z,99467.78
2022-08-03T19:02:00.418Z,99482.78
2022-08-03T19:04:36.655Z,99481.09
2022-08-03T19:07:09.066Z,99468.50
2022-08-03T19:09:46.955Z,99482.91
2022-08-03T19:12:28.275Z,99472.41
2022-08-03T19:15:05.569Z,99479.47
2022-08-03T19:17:53.334Z,99465.34
2022-08-03T19:20:26.710Z,99477.78
2022-08-03T19:22:56.872Z,99483.25
2022-08-03T19:25:34.925Z,99476.50
2022-08-03T19:28:05.826Z,99475.22
2022-08-03T19:30:40.269Z,99488.34
2022-08-03T19:33:13.220Z,99483.34
2022-08-03T19:35:52.159Z,99486.25
2022-08-03T19:38:28.224Z,99481.09
2022-08-03T19:40:59.810Z,99485.28
2022-08-03T19:43:52.714Z,99483.69
2022-08-03T19:46:30.459Z,99467.84
2022-08-03T19:49:10.453Z,99478.84
2022-08-03T19:52:02.346Z,99478.06
2022-08-03T19:54:53.840Z,99476.88
2022-08-03T19:57:25.004Z,99475.13
2022-08-03T19:59:53.638Z,99478.94
2022-08-03T20:02:26.802Z,99476.25
2022-08-03T20:04:57.205Z,99475.88
2022-08-03T20:07:26.237Z,99483.56
2022-08-03T20:09:56.692Z,99473.84
2022-08-03T20:12:29.556Z,99490.13
2022-08-03T20:14:57.490Z,99496.31
2022-08-03T20:17:55.254Z,99482.88
2022-08-03T20:20:13.816Z,99495.69
2022-08-03T20:22:45.656Z,99499.19
2022-08-03T20:25:20.931Z,99505.03
2022-08-03T20:28:07.024Z,99493.97
2022-08-03T20:30:36.134Z,99501.88
2022-08-03T20:33:04.609Z,99511.72
2022-08-03T20:35:33.499Z,99512.97
2022-08-03T20:38:00.576Z,99516.59
2022-08-03T20:40:27.762Z,99507.25
2022-08-03T20:42:56.175Z,99518.09
2022-08-03T20:45:59.014Z,99517.53
2022-08-03T20:48:10.973Z,99523.06
2022-08-03T20:50:41.573Z,99526.69
2022-08-03T20:53:12.131Z,99510.38
2022-08-03T20:55:48.146Z,99521.63
2022-08-03T20:58:27.268Z,99531.91
2022-08-03T21:00:56.931Z,99529.78
2022-08-03T21:03:26.089Z,99528.00
2022-08-03T21:06:12.464Z,99530.09
2022-08-03T21:08:46.895Z,99535.53
2022-08-03T21:11:19.587Z,99537.53
2022-08-03T21:13:55.514Z,99535.28
2022-08-03T21:16:27.113Z,99537.00
2022-08-03T21:18:55.685Z,99541.94
2022-08-03T21:21:23.803Z,99530.44
2022-08-03T21:23:54.652Z,99533.44
2022-08-03T21:26:24.928Z,99539.75
2022-08-03T21:28:54.129Z,99523.03
2022-08-03T21:31:25.402Z,99538.88
2022-08-03T21:33:59.594Z,99533.84
2022-08-03T21:36:28.656Z,99522.94
2022-08-03T21:38:57.510Z,99529.28
2022-08-03T21:41:30.651Z,99526.13
2022-08-03T21:43:58.251Z,99540.63
2022-08-03T21:46:27.240Z,99537.94
2022-08-03T21:50:05.405Z,99539.50
2022-08-03T21:51:49.990Z,99539.88
2022-08-03T21:54:20.219Z,99544.00
2022-08-03T21:56:51.646Z,99546.81
2022-08-03T21:59:20.378Z,99538.38
2022-08-03T22:01:51.277Z,99532.78
2022-08-03T22:04:50.204Z,99542.75
2022-08-03T22:07:10.229Z,99546.59
2022-08-03T22:09:37.645Z,99546.97
2022-08-03T22:12:05.246Z,99547.53
2022-08-03T22:14:35.620Z,99545.97
2022-08-03T22:17:07.220Z,99548.94
2022-08-03T22:19:35.244Z,99546.56
2022-08-03T22:22:06.696Z,99545.81
2022-08-03T22:24:36.728Z,99543.97
2022-08-03T22:27:24.370Z,99537.00
2022-08-03T22:29:53.440Z,99542.13
2022-08-03T22:32:24.177Z,99556.44
2022-08-03T22:34:54.512Z,99564.56
2022-08-03T22:37:26.418Z,99565.81
2022-08-03T22:39:53.787Z,99558.50
2022-08-03T22:42:22.451Z,99563.03
2022-08-03T22:44:52.693Z,99563.91
2022-08-03T22:47:22.750Z,99540.66
2022-08-03T22:50:31.672Z,99564.91
2022-08-03T22:52:42.069Z,99573.25
2022-08-03T22:55:18.853Z,99568.28
2022-08-03T22:57:55.915Z,99574.34
2022-08-03T23:00:24.571Z,99571.38
2022-08-03T23:02:54.984Z,99567.72
2022-08-03T23:06:02.509Z,99571.31
2022-08-03T23:08:18.981Z,99546.94
2022-08-03T23:10:49.031Z,99570.94
2022-08-03T23:13:26.430Z,99575.03
2022-08-03T23:15:58.787Z,99576.97
2022-08-03T23:18:32.961Z,99563.03
2022-08-03T23:21:10.967Z,99580.72
2022-08-03T23:23:44.654Z,99582.53
2022-08-03T23:26:13.714Z,99576.47
2022-08-03T23:28:45.418Z,99584.38
2022-08-03T23:31:14.248Z,99583.72
2022-08-03T23:33:45.067Z,99575.91
2022-08-03T23:36:31.313Z,99572.59
2022-08-03T23:39:02.325Z,99583.59
2022-08-03T23:41:32.132Z,99582.28
2022-08-03T23:44:03.759Z,99593.66
2022-08-03T23:46:31.198Z,99588.47
2022-08-03T23:48:59.936Z,99585.91
2022-08-03T23:51:36.447Z,99584.00
2022-08-03T23:54:19.755Z,99577.09
2022-08-03T23:56:52.696Z,99590.22
2022-08-03T23:59:58.874Z,99592.88
